Time;durP1;ratioP1;P1;durP2;ratioP2;P2;SDS_P1;SDS_P2;PMS_P1;PMS_P2;Temp;Humidity;BMP_temperature;BMP_pressure;BME280_temperature;BME280_humidity;BME280_pressure;Samples;Min_cycle;Max_cycle;Signal;HPM_P1;HPM_P2
2024/02/02 00:00:01;;;;;;;142.68;135.27;;;10.50;99.90;;;;;;5032150;28;20052;-72
2024/02/02 00:02:27;;;;;;;168.20;159.45;;;10.50;99.90;;;;;;5031346;28;20044;-72
2024/02/02 00:04:53;;;;;;;150.48;142.32;;;10.40;99.90;;;;;;5031450;28;20068;-72
2024/02/02 00:07:19;;;;;;;217.43;206.07;;;10.40;99.90;;;;;;5031671;28;20034;-71
2024/02/02 00:09:46;;;;;;;249.10;235.85;;;10.40;99.90;;;;;;5032113;28;20034;-72
2024/02/02 00:12:12;;;;;;;149.23;141.35;;;10.40;99.90;;;;;;5031360;28;20022;-71
2024/02/02 00:14:38;;;;;;;113.30;107.13;;;10.20;99.90;;;;;;5030587;28;20061;-73
2024/02/02 00:17:07;;;;;;;89.05;84.10;;;10.10;99.90;;;;;;5031280;28;20034;-73
2024/02/02 00:19:33;;;;;;;80.70;76.32;;;9.90;99.90;;;;;;5031955;28;20499;-73
2024/02/02 00:21:59;;;;;;;89.13;84.18;;;9.70;99.90;;;;;;5031653;28;20053;-73
2024/02/02 00:24:25;;;;;;;96.75;91.43;;;9.60;99.90;;;;;;5031699;28;20025;-73
2024/02/02 00:26:52;;;;;;;66.80;62.90;;;9.70;99.90;;;;;;5030979;28;20044;-73
2024/02/02 00:29:18;;;;;;;84.60;80.13;;;9.70;99.90;;;;;;5031572;28;20064;-72
2024/02/02 00:31:44;;;;;;;73.03;69.10;;;9.80;99.90;;;;;;5033007;28;20492;-73
2024/02/02 00:34:10;;;;;;;100.88;95.43;;;9.80;99.90;;;;;;5035660;28;20041;-72
2024/02/02 00:36:36;;;;;;;103.88;98.20;;;9.80;99.90;;;;;;5035475;28;20029;-73
2024/02/02 00:39:02;;;;;;;176.82;167.23;;;9.80;99.90;;;;;;5035821;28;20497;-73
2024/02/02 00:41:28;;;;;;;135.68;128.55;;;9.90;99.90;;;;;;5034823;28;20433;-73
2024/02/02 00:43:55;;;;;;;157.13;148.38;;;9.80;99.90;;;;;;5035539;28;20029;-73
2024/02/02 00:46:21;;;;;;;108.68;102.78;;;9.60;99.90;;;;;;5033732;28;20048;-73
2024/02/02 00:48:47;;;;;;;90.03;84.90;;;9.50;99.90;;;;;;5034894;28;20033;-73
2024/02/02 00:51:13;;;;;;;147.77;139.82;;;9.60;99.90;;;;;;5035182;28;20394;-72
2024/02/02 00:53:39;;;;;;;209.77;198.43;;;9.70;99.90;;;;;;5034157;28;20033;-73
2024/02/02 00:56:05;;;;;;;221.68;209.77;;;9.70;99.90;;;;;;5034740;28;20026;-72
2024/02/02 00:58:31;;;;;;;100.65;94.93;;;9.80;99.90;;;;;;5035315;28;20057;-73
2024/02/02 01:00:57;;;;;;;107.63;101.68;;;9.80;99.90;;;;;;5034661;28;20045;-73
2024/02/02 01:03:23;;;;;;;95.03;89.53;;;9.80;99.90;;;;;;5034741;28;20037;-73
2024/02/02 01:05:50;;;;;;;196.45;186.10;;;9.80;99.90;;;;;;5035090;28;20040;-72
2024/02/02 01:08:16;;;;;;;171.20;162.05;;;9.90;99.90;;;;;;5035010;28;20397;-73
2024/02/02 01:10:42;;;;;;;158.80;150.20;;;9.80;99.90;;;;;;5034272;28;20032;-72
2024/02/02 01:13:08;;;;;;;157.77;149.40;;;9.70;99.90;;;;;;5035202;28;20025;-72
2024/02/02 01:15:34;;;;;;;112.80;106.57;;;9.70;99.90;;;;;;5034307;28;20042;-73
2024/02/02 01:18:02;;;;;;;117.30;110.90;;;9.80;99.90;;;;;;5034905;28;20037;-73
2024/02/02 01:20:28;;;;;;;110.28;104.25;;;9.80;99.90;;;;;;5034820;28;20025;-73
2024/02/02 01:22:54;;;;;;;170.25;160.57;;;9.80;99.90;;;;;;5034894;28;20481;-73
2024/02/02 01:25:20;;;;;;;114.50;108.20;;;9.70;99.90;;;;;;5034245;28;20030;-73
2024/02/02 01:27:47;;;;;;;80.63;76.07;;;9.60;99.90;;;;;;5034629;28;20041;-73
2024/02/02 01:30:13;;;;;;;135.98;127.90;;;9.70;99.90;;;;;;5034013;28;20490;-73
2024/02/02 01:32:39;;;;;;;156.70;147.30;;;9.60;99.90;;;;;;5034767;28;20386;-73
2024/02/02 01:35:05;;;;;;;198.05;185.75;;;9.60;99.90;;;;;;5034632;28;20072;-73
2024/02/02 01:37:32;;;;;;;102.35;96.63;;;9.50;99.90;;;;;;5034066;28;20068;-72
2024/02/02 01:39:58;;;;;;;179.65;168.90;;;9.60;99.90;;;;;;5034151;28;20045;-73
2024/02/02 01:42:24;;;;;;;156.98;147.63;;;9.50;99.90;;;;;;5033489;28;20036;-73
2024/02/02 01:44:50;;;;;;;81.05;76.30;;;9.60;99.90;;;;;;5034496;28;20493;-73
2024/02/02 01:47:16;;;;;;;202.85;191.38;;;9.70;99.90;;;;;;5033333;28;20037;-73
2024/02/02 01:49:42;;;;;;;74.00;69.68;;;9.70;99.90;;;;;;5034862;28;20029;-73
2024/02/02 01:52:08;;;;;;;319.20;300.00;;;9.80;99.90;;;;;;5033677;28;20040;-73
2024/02/02 01:54:34;;;;;;;344.63;325.00;;;9.70;99.90;;;;;;5033166;28;20398;-73
2024/02/02 01:57:00;;;;;;;306.58;288.80;;;9.70;99.90;;;;;;5032693;28;20033;-73
2024/02/02 01:59:27;;;;;;;298.90;280.77;;;9.70;99.90;;;;;;5034027;28;20034;-73
2024/02/02 02:01:53;;;;;;;325.20;305.55;;;9.70;99.90;;;;;;5032212;28;20041;-72
2024/02/02 02:04:19;;;;;;;388.90;365.70;;;9.80;99.90;;;;;;5034225;28;20510;-73
2024/02/02 02:06:45;;;;;;;368.98;347.92;;;9.80;99.90;;;;;;5033611;28;20041;-73
2024/02/02 02:09:11;;;;;;;256.45;242.30;;;9.80;99.90;;;;;;5034003;28;20029;-73
2024/02/02 02:11:38;;;;;;;359.33;339.10;;;9.70;99.90;;;;;;5033754;28;20029;-73
2024/02/02 02:14:04;;;;;;;385.20;362.83;;;9.70;99.90;;;;;;5032744;28;20036;-73
2024/02/02 02:16:30;;;;;;;433.38;407.50;;;9.90;99.90;;;;;;5033131;28;20494;-72
2024/02/02 02:18:56;;;;;;;294.50;277.95;;;9.90;99.90;;;;;;5034024;28;20470;-73
2024/02/02 02:21:26;;;;;;;307.17;289.83;;;10.00;99.90;;;;;;5033088;28;20044;-73
2024/02/02 02:23:53;;;;;;;333.83;314.83;;;10.00;99.90;;;;;;5033793;28;20038;-72
2024/02/02 02:26:19;;;;;;;279.38;263.50;;;9.80;99.90;;;;;;5033451;28;20338;-73
2024/02/02 02:28:45;;;;;;;300.70;284.17;;;9.90;99.90;;;;;;5033430;28;20505;-73
2024/02/02 02:31:12;;;;;;;288.98;272.80;;;9.80;99.90;;;;;;5031751;28;20037;-72
2024/02/02 02:33:42;;;;;;;301.00;283.95;;;9.70;99.90;;;;;;5033515;28;20048;-73
2024/02/02 02:36:09;;;;;;;278.55;263.23;;;9.70;99.90;;;;;;5031766;28;20485;-73
2024/02/02 02:38:35;;;;;;;240.30;227.10;;;9.60;99.90;;;;;;5032050;28;20026;-72
2024/02/02 02:41:01;;;;;;;234.40;221.85;;;9.60;99.90;;;;;;5031575;28;20053;-73
2024/02/02 02:43:28;;;;;;;195.65;185.05;;;9.50;99.90;;;;;;5033461;28;20025;-73
2024/02/02 02:45:54;;;;;;;311.33;293.85;;;9.60;99.90;;;;;;5032550;28;20046;-73
2024/02/02 02:48:21;;;;;;;376.98;355.30;;;9.60;99.90;;;;;;5032223;28;20033;-73
2024/02/02 02:50:47;;;;;;;334.90;315.83;;;9.80;99.90;;;;;;5031483;28;20036;-73
2024/02/02 02:53:13;;;;;;;346.88;327.52;;;9.70;99.90;;;;;;5033216;28;20040;-73
2024/02/02 02:55:39;;;;;;;347.27;327.65;;;9.80;99.90;;;;;;5031050;28;20490;-73
2024/02/02 02:58:05;;;;;;;217.32;205.32;;;9.80;99.90;;;;;;5033184;28;20030;-73
2024/02/02 03:00:32;;;;;;;148.65;140.68;;;9.90;99.90;;;;;;5031795;28;20037;-73
2024/02/02 03:02:58;;;;;;;125.25;118.38;;;10.00;99.90;;;;;;5023708;28;20052;-73
2024/02/02 03:05:29;;;;;;;118.78;112.13;;;10.00;99.90;;;;;;5025654;28;20029;-73
2024/02/02 03:07:55;;;;;;;101.72;95.95;;;10.00;99.90;;;;;;5031696;28;20032;-72
2024/02/02 03:10:22;;;;;;;117.18;110.75;;;10.10;99.90;;;;;;5030045;28;20037;-73
2024/02/02 03:12:48;;;;;;;143.88;136.00;;;10.20;99.90;;;;;;5030869;28;20044;-73
2024/02/02 03:15:14;;;;;;;114.03;107.53;;;10.20;99.90;;;;;;5030708;28;20037;-74
2024/02/02 03:17:40;;;;;;;157.48;149.00;;;10.20;99.90;;;;;;5031567;28;20029;-73
2024/02/02 03:20:10;;;;;;;221.52;209.50;;;10.20;99.90;;;;;;5031254;28;20036;-73
2024/02/02 03:22:36;;;;;;;250.65;237.18;;;10.00;99.90;;;;;;5020502;28;20042;-73
2024/02/02 03:25:03;;;;;;;207.95;196.68;;;10.10;99.90;;;;;;5030157;28;20473;-73
2024/02/02 03:27:29;;;;;;;236.52;223.45;;;10.10;99.90;;;;;;5030552;28;20045;-73
2024/02/02 03:29:55;;;;;;;256.42;242.32;;;10.20;99.90;;;;;;5031536;28;20382;-72
2024/02/02 03:32:21;;;;;;;325.67;307.98;;;10.30;99.90;;;;;;5030441;28;20036;-73
2024/02/02 03:34:47;;;;;;;324.48;306.50;;;10.40;99.90;;;;;;5030597;28;20049;-72
2024/02/02 03:37:13;;;;;;;253.90;240.13;;;10.40;99.90;;;;;;5031416;28;20459;-72
2024/02/02 03:39:39;;;;;;;272.42;257.42;;;10.40;99.90;;;;;;5032043;28;20041;-72
2024/02/02 03:42:05;;;;;;;274.17;259.27;;;10.50;99.90;;;;;;5031353;28;20482;-72
2024/02/02 03:44:31;;;;;;;97.80;92.43;;;10.50;99.90;;;;;;5032117;28;20479;-72
2024/02/02 03:46:57;;;;;;;91.35;86.10;;;10.50;99.90;;;;;;5031601;28;20042;-72
2024/02/02 03:49:24;;;;;;;89.28;84.35;;;10.40;99.90;;;;;;5031978;28;20438;-72
2024/02/02 03:51:50;;;;;;;91.20;86.18;;;10.50;99.90;;;;;;5031210;28;20037;-72
2024/02/02 03:54:16;;;;;;;162.43;153.60;;;10.50;99.90;;;;;;5032020;28;20045;-72
2024/02/02 03:56:42;;;;;;;96.32;91.03;;;10.40;99.90;;;;;;5031480;28;20052;-72
2024/02/02 03:59:09;;;;;;;93.50;88.35;;;10.40;99.90;;;;;;5032524;28;20034;-72
2024/02/02 04:01:35;;;;;;;94.93;89.72;;;10.40;99.90;;;;;;5031358;28;20029;-73
2024/02/02 04:04:01;;;;;;;122.00;115.55;;;10.40;99.90;;;;;;5030964;28;20029;-73
2024/02/02 04:06:28;;;;;;;248.90;235.50;;;10.30;99.90;;;;;;5031290;28;20033;-72
2024/02/02 04:08:54;;;;;;;92.57;87.53;;;10.30;99.90;;;;;;5032045;28;20030;-73
2024/02/02 04:11:20;;;;;;;101.55;96.10;;;10.30;99.90;;;;;;5031660;28;20033;-72
2024/02/02 04:13:46;;;;;;;142.85;134.70;;;10.20;99.90;;;;;;5029973;28;20487;-73
2024/02/02 04:16:12;;;;;;;210.75;199.15;;;10.20;99.90;;;;;;5031402;28;20491;-73
2024/02/02 04:18:38;;;;;;;178.45;169.07;;;10.20;99.90;;;;;;5031570;28;20104;-73
2024/02/02 04:21:05;;;;;;;213.88;202.30;;;10.20;99.90;;;;;;5031740;28;20034;-73
2024/02/02 04:23:31;;;;;;;197.25;186.80;;;10.20;99.90;;;;;;5031294;28;20044;-72
2024/02/02 04:25:57;;;;;;;265.52;250.55;;;10.20;99.90;;;;;;5031266;28;20033;-73
2024/02/02 04:28:23;;;;;;;252.57;238.85;;;10.00;99.90;;;;;;5031770;28;20026;-73
2024/02/02 04:30:49;;;;;;;246.02;232.77;;;9.80;99.90;;;;;;5030883;28;20060;-73
2024/02/02 04:33:15;;;;;;;272.08;257.13;;;9.70;99.90;;;;;;5031412;28;20033;-73
2024/02/02 04:35:42;;;;;;;235.50;222.43;;;9.80;99.90;;;;;;5031501;28;20040;-73
2024/02/02 04:38:08;;;;;;;194.93;184.55;;;9.80;99.90;;;;;;5030929;28;20386;-73
2024/02/02 04:40:34;;;;;;;297.50;280.90;;;9.70;99.90;;;;;;5029362;28;20041;-72
2024/02/02 04:43:00;;;;;;;251.02;237.70;;;9.90;99.90;;;;;;5031546;28;20045;-72
2024/02/02 04:45:26;;;;;;;161.27;152.50;;;9.90;99.90;;;;;;5030966;28;20037;-73
2024/02/02 04:47:52;;;;;;;135.30;127.85;;;9.80;99.90;;;;;;5031452;28;20037;-72
2024/02/02 04:50:18;;;;;;;161.73;152.93;;;9.50;99.90;;;;;;5030964;28;20041;-73
2024/02/02 04:52:44;;;;;;;111.78;105.25;;;9.40;99.90;;;;;;5031317;28;20041;-73
2024/02/02 04:55:11;;;;;;;172.10;162.77;;;9.50;99.90;;;;;;5031448;28;20053;-72
2024/02/02 04:57:37;;;;;;;175.98;166.43;;;9.50;99.90;;;;;;5031748;28;20029;-72
2024/02/02 05:00:04;;;;;;;224.07;211.93;;;9.60;99.90;;;;;;5030715;28;20033;-72
2024/02/02 05:02:31;;;;;;;257.27;243.60;;;9.70;99.90;;;;;;5030096;28;20045;-72
2024/02/02 05:04:57;;;;;;;262.23;248.15;;;9.70;99.90;;;;;;5031546;28;20025;-73
2024/02/02 05:07:23;;;;;;;259.80;246.00;;;9.80;99.90;;;;;;5031333;28;20033;-73
2024/02/02 05:09:49;;;;;;;242.50;229.00;;;9.90;99.90;;;;;;5031165;28;20143;-73
2024/02/02 05:12:16;;;;;;;198.23;186.98;;;9.90;99.90;;;;;;5031140;28;20038;-73
2024/02/02 05:14:42;;;;;;;185.00;174.90;;;9.50;99.90;;;;;;5031217;28;20045;-72
2024/02/02 05:17:08;;;;;;;201.80;190.90;;;9.50;99.90;;;;;;5030285;28;20572;-73
2024/02/02 05:19:34;;;;;;;229.43;217.45;;;9.60;99.90;;;;;;5034388;28;20037;-73
2024/02/02 05:22:01;;;;;;;255.10;241.32;;;9.70;99.90;;;;;;5033281;28;20040;-73
2024/02/02 05:24:27;;;;;;;248.35;235.20;;;9.90;99.90;;;;;;5034562;28;20068;-72
2024/02/02 05:26:53;;;;;;;235.40;222.80;;;9.90;99.90;;;;;;5033793;28;20068;-73
2024/02/02 05:29:19;;;;;;;265.38;250.63;;;9.90;99.90;;;;;;5034330;28;20037;-72
2024/02/02 05:31:45;;;;;;;219.95;205.90;;;10.00;99.90;;;;;;5033524;28;20037;-73
2024/02/02 05:34:11;;;;;;;196.50;185.68;;;10.00;99.90;;;;;;5034594;28;20037;-73
2024/02/02 05:36:37;;;;;;;219.88;207.75;;;10.10;99.90;;;;;;5034489;28;20049;-72
2024/02/02 05:39:03;;;;;;;162.07;153.40;;;10.10;99.90;;;;;;5034217;28;20382;-73
2024/02/02 05:41:29;;;;;;;233.45;220.35;;;10.10;99.90;;;;;;5034061;28;20041;-73
2024/02/02 05:43:55;;;;;;;234.27;221.73;;;10.00;99.90;;;;;;5034120;28;20034;-72
2024/02/02 05:46:22;;;;;;;248.43;234.90;;;10.10;99.90;;;;;;5032830;28;20038;-73
2024/02/02 05:48:48;;;;;;;202.43;191.43;;;10.00;99.90;;;;;;5033803;28;20025;-73
2024/02/02 05:51:14;;;;;;;239.00;226.10;;;9.80;99.90;;;;;;5033733;28;20512;-72
2024/02/02 05:53:40;;;;;;;238.85;226.27;;;9.80;99.90;;;;;;5033886;28;20030;-73
2024/02/02 05:56:07;;;;;;;241.45;228.85;;;9.90;99.90;;;;;;5033500;28;20048;-73
2024/02/02 05:58:33;;;;;;;112.63;106.50;;;9.90;99.90;;;;;;5033707;28;20021;-73
2024/02/02 06:00:59;;;;;;;126.43;119.53;;;10.00;99.90;;;;;;5033218;28;20041;-74
2024/02/02 06:03:25;;;;;;;127.57;120.68;;;10.00;99.90;;;;;;5032498;28;20030;-73
2024/02/02 06:05:51;;;;;;;120.22;113.63;;;10.10;99.90;;;;;;5033793;28;20037;-72
2024/02/02 06:08:17;;;;;;;245.70;232.57;;;10.10;99.90;;;;;;5033419;28;20390;-73
2024/02/02 06:10:44;;;;;;;237.43;224.43;;;10.00;99.90;;;;;;5033673;28;20025;-73
2024/02/02 06:13:11;;;;;;;166.77;157.82;;;9.80;99.90;;;;;;5033520;28;20029;-72
2024/02/02 06:15:37;;;;;;;204.80;193.63;;;9.50;99.90;;;;;;5031949;28;20037;-73
2024/02/02 06:18:03;;;;;;;195.52;185.05;;;9.50;99.90;;;;;;5032620;28;20387;-73
2024/02/02 06:20:29;;;;;;;226.32;214.15;;;9.60;99.90;;;;;;5032867;28;20029;-73
2024/02/02 06:22:55;;;;;;;216.75;204.93;;;9.80;99.90;;;;;;5033835;28;20056;-73
2024/02/02 06:25:21;;;;;;;202.50;191.45;;;9.70;99.90;;;;;;5032562;28;20113;-73
2024/02/02 06:27:47;;;;;;;216.50;204.55;;;9.60;99.90;;;;;;5033123;28;20029;-73
2024/02/02 06:30:14;;;;;;;199.38;188.70;;;9.50;99.90;;;;;;5032489;28;20037;-73
2024/02/02 06:32:41;;;;;;;209.23;197.60;;;9.60;99.90;;;;;;5033611;28;20044;-73
2024/02/02 06:35:07;;;;;;;181.73;171.73;;;9.70;99.90;;;;;;5032713;28;20041;-73
2024/02/02 06:37:33;;;;;;;138.77;131.02;;;9.90;99.90;;;;;;5033181;28;20379;-73
2024/02/02 06:40:03;;;;;;;116.05;108.97;;;10.00;99.90;;;;;;5033245;28;20037;-73
2024/02/02 06:42:30;;;;;;;86.00;81.05;;;10.00;99.90;;;;;;5032910;28;20029;-73
2024/02/02 06:44:57;;;;;;;108.55;102.50;;;10.00;99.90;;;;;;5033049;28;20509;-73
2024/02/02 06:47:23;;;;;;;137.18;129.55;;;10.10;99.90;;;;;;5030335;28;20064;-73
2024/02/02 06:49:49;;;;;;;236.00;223.30;;;10.00;99.90;;;;;;5033133;28;20044;-73
2024/02/02 06:52:16;;;;;;;236.32;223.75;;;10.00;99.90;;;;;;5032718;28;20513;-73
2024/02/02 06:54:43;;;;;;;262.60;248.55;;;10.00;99.90;;;;;;5032573;28;20366;-73
2024/02/02 06:57:09;;;;;;;240.23;226.73;;;10.00;99.90;;;;;;5032667;28;20044;-73
2024/02/02 06:59:36;;;;;;;189.63;179.18;;;10.00;99.90;;;;;;5033165;28;20033;-73
2024/02/02 07:02:11;;;;;;;141.55;133.52;;;10.10;99.90;;;;;;5032300;28;20044;-73
2024/02/02 07:04:38;;;;;;;155.88;147.52;;;10.10;99.90;;;;;;5031698;28;20017;-73
2024/02/02 07:07:04;;;;;;;133.73;126.18;;;10.10;99.90;;;;;;5032918;28;20040;-73
2024/02/02 07:09:31;;;;;;;223.30;210.65;;;10.00;99.90;;;;;;5032890;28;20029;-73
2024/02/02 07:12:09;;;;;;;289.73;273.48;;;10.10;99.90;;;;;;5031370;28;20060;-73
2024/02/02 07:14:45;;;;;;;358.85;329.50;;;9.90;99.90;;;;;;5030749;28;20041;-73
2024/02/02 07:17:22;;;;;;;216.60;205.00;;;10.00;99.90;;;;;;5031806;28;20060;-73
2024/02/02 07:19:49;;;;;;;166.07;157.02;;;10.10;99.90;;;;;;5032814;28;20041;-73
2024/02/02 07:22:36;;;;;;;188.80;178.40;;;10.00;99.90;;;;;;5032732;28;20038;-73
2024/02/02 07:25:05;;;;;;;168.40;159.27;;;10.00;99.90;;;;;;5032629;28;20049;-73
2024/02/02 07:27:56;;;;;;;128.18;120.53;;;10.00;99.90;;;;;;5032248;28;20025;-73
2024/02/02 07:30:34;;;;;;;110.57;104.30;;;10.10;99.90;;;;;;5032483;28;20040;-73
2024/02/02 07:33:00;;;;;;;102.60;96.63;;;10.10;99.90;;;;;;5032640;28;20021;-73
2024/02/02 07:35:34;;;;;;;115.20;108.30;;;10.00;99.90;;;;;;5030841;28;20037;-73
2024/02/02 07:38:04;;;;;;;116.07;109.53;;;9.90;99.90;;;;;;5031246;28;20367;-73
2024/02/02 07:40:30;;;;;;;132.52;124.88;;;10.00;99.90;;;;;;5029778;28;20490;-73
2024/02/02 07:42:57;;;;;;;125.38;118.30;;;10.00;99.90;;;;;;5031212;28;20025;-72
2024/02/02 07:45:23;;;;;;;106.20;100.18;;;10.10;99.90;;;;;;5031019;28;20048;-73
2024/02/02 07:47:49;;;;;;;100.90;95.10;;;10.00;99.90;;;;;;5028969;28;20045;-74
2024/02/02 07:50:15;;;;;;;127.03;119.82;;;10.10;99.90;;;;;;5031972;28;20038;-72
2024/02/02 07:52:41;;;;;;;136.23;128.68;;;10.00;99.90;;;;;;5031887;28;20034;-71
2024/02/02 07:55:08;;;;;;;115.07;108.65;;;10.10;99.90;;;;;;5024688;28;20493;-72
2024/02/02 07:57:34;;;;;;;111.32;105.03;;;10.10;99.90;;;;;;5019620;28;20033;-71
2024/02/02 08:00:00;;;;;;;111.22;104.80;;;10.10;99.90;;;;;;5031705;28;20390;-71
2024/02/02 08:02:26;;;;;;;117.90;111.38;;;10.10;99.90;;;;;;5023827;28;20040;-72
2024/02/02 08:04:52;;;;;;;130.20;122.53;;;10.10;99.90;;;;;;5030689;28;20033;-73
2024/02/02 08:07:18;;;;;;;130.40;123.15;;;10.10;99.90;;;;;;5031141;28;20037;-72
2024/02/02 08:09:44;;;;;;;166.27;157.10;;;10.10;99.90;;;;;;5030165;28;20041;-73
2024/02/02 08:12:10;;;;;;;143.38;135.52;;;10.20;99.90;;;;;;5031632;28;20037;-73
2024/02/02 08:14:38;;;;;;;135.32;127.78;;;10.20;99.90;;;;;;5020049;28;20030;-73
2024/02/02 08:17:07;;;;;;;144.75;136.43;;;10.20;99.90;;;;;;5020559;28;20046;-73
2024/02/02 08:19:33;;;;;;;151.15;142.90;;;10.20;99.90;;;;;;5031811;28;20053;-73
2024/02/02 08:21:59;;;;;;;194.20;183.65;;;10.20;99.90;;;;;;5031552;28;20037;-73
2024/02/02 08:24:25;;;;;;;146.98;138.65;;;10.00;99.90;;;;;;5030404;28;20041;-73
2024/02/02 08:26:51;;;;;;;106.05;99.68;;;10.10;99.90;;;;;;5031333;28;20041;-74
2024/02/02 08:29:17;;;;;;;78.78;73.72;;;10.10;99.90;;;;;;5012264;28;20045;-73
2024/02/02 08:31:46;;;;;;;89.70;84.22;;;10.20;99.90;;;;;;5024789;28;20045;-74
2024/02/02 08:34:12;;;;;;;112.35;105.55;;;10.20;99.90;;;;;;5030851;28;20049;-73
2024/02/02 08:36:38;;;;;;;131.25;123.15;;;10.20;99.90;;;;;;5029969;28;20482;-73
2024/02/02 08:39:06;;;;;;;107.18;99.70;;;10.20;99.90;;;;;;5031265;28;20038;-73
2024/02/02 08:41:34;;;;;;;119.32;110.90;;;10.10;99.90;;;;;;5027202;28;20520;-73
2024/02/02 08:44:00;;;;;;;132.98;125.00;;;10.20;99.90;;;;;;5017343;28;20393;-74
2024/02/02 08:46:26;;;;;;;142.35;134.15;;;10.20;99.90;;;;;;5029489;28;20034;-74
2024/02/02 08:48:54;;;;;;;218.52;206.48;;;9.90;99.90;;;;;;5016170;28;20045;-73
2024/02/02 08:51:29;;;;;;;205.13;193.13;;;9.80;99.90;;;;;;5026371;28;20040;-73
2024/02/02 08:54:33;;;;;;;255.50;241.25;;;9.80;99.90;;;;;;5033543;28;20037;-73
2024/02/02 08:57:25;;;;;;;174.45;164.85;;;9.90;99.90;;;;;;5027907;28;20064;-73
2024/02/02 08:59:54;;;;;;;183.85;173.85;;;10.10;99.90;;;;;;5033373;28;20049;-73
2024/02/02 09:02:58;;;;;;;142.23;133.95;;;10.10;99.90;;;;;;5033664;28;20479;-74
2024/02/02 09:05:25;;;;;;;137.88;129.98;;;9.80;99.90;;;;;;5033679;28;20410;-74
2024/02/02 09:08:25;;;;;;;190.98;180.32;;;9.80;99.90;;;;;;5032992;28;20037;-73
2024/02/02 09:10:57;;;;;;;321.67;303.48;;;9.90;99.90;;;;;;5034988;28;20048;-74
2024/02/02 09:13:24;;;;;;;255.82;241.25;;;10.00;99.90;;;;;;5034440;28;20025;-74
2024/02/02 09:15:50;;;;;;;254.60;240.57;;;10.10;99.90;;;;;;5034323;28;20514;-74
2024/02/02 09:18:23;;;;;;;192.38;181.50;;;10.20;99.90;;;;;;5034606;28;20052;-74
2024/02/02 09:20:50;;;;;;;207.25;195.40;;;10.30;99.90;;;;;;5034742;28;20037;-74
2024/02/02 09:23:16;;;;;;;228.77;215.13;;;10.40;99.90;;;;;;5032475;28;20028;-74
2024/02/02 09:25:43;;;;;;;201.23;189.90;;;10.40;99.90;;;;;;5033267;28;20022;-74
2024/02/02 09:28:39;;;;;;;205.23;193.48;;;10.30;99.90;;;;;;5033773;28;20041;-74
2024/02/02 09:31:08;;;;;;;129.20;121.63;;;10.40;99.90;;;;;;5025436;28;20033;-74
2024/02/02 09:33:44;;;;;;;136.98;129.00;;;10.50;99.90;;;;;;5032959;28;20072;-74
2024/02/02 09:36:11;;;;;;;149.00;140.82;;;10.50;99.90;;;;;;5034041;28;20056;-74
2024/02/02 09:38:37;;;;;;;153.48;145.10;;;10.40;99.90;;;;;;5032700;28;20402;-74
2024/02/02 09:41:03;;;;;;;104.15;98.43;;;10.30;99.90;;;;;;5033075;28;20045;-74
2024/02/02 09:43:51;;;;;;;133.73;126.30;;;10.30;99.90;;;;;;5034276;28;20029;-74
2024/02/02 09:46:23;;;;;;;129.18;122.10;;;10.40;99.90;;;;;;5023270;28;20056;-74
2024/02/02 09:48:52;;;;;;;114.97;108.40;;;10.40;99.90;;;;;;5034376;28;20045;-74
2024/02/02 09:51:29;;;;;;;164.00;155.00;;;10.50;99.90;;;;;;5033038;28;20030;-71
2024/02/02 09:54:02;;;;;;;146.80;138.88;;;10.60;99.90;;;;;;5030586;28;20034;-74
2024/02/02 09:56:33;;;;;;;114.28;107.55;;;10.70;99.90;;;;;;5026358;28;20483;-73
2024/02/02 09:59:28;;;;;;;192.65;182.23;;;10.80;99.90;;;;;;5029334;28;20022;-73
2024/02/02 10:02:20;;;;;;;139.90;131.93;;;10.80;99.90;;;;;;4973556;28;20037;-73
2024/02/02 10:05:00;;;;;;;165.52;156.10;;;10.90;99.90;;;;;;4975414;28;20056;-73
2024/02/02 10:08:03;;;;;;;179.65;169.50;;;10.90;99.90;;;;;;4975439;28;20042;-73
2024/02/02 10:10:42;;;;;;;138.02;130.40;;;10.80;99.90;;;;;;4984985;28;20042;-73
2024/02/02 10:13:31;;;;;;;144.27;136.23;;;10.90;99.90;;;;;;4967480;28;20045;-74
2024/02/02 10:16:10;;;;;;;201.43;190.68;;;10.80;99.90;;;;;;4971618;28;20381;-74
2024/02/02 10:18:54;;;;;;;166.35;156.98;;;10.90;99.90;;;;;;4978084;28;20392;-75
2024/02/02 10:21:25;;;;;;;213.52;201.35;;;11.00;99.90;;;;;;4985026;28;20050;-74
2024/02/02 10:24:19;;;;;;;216.05;203.98;;;11.00;99.90;;;;;;4973952;28;20402;-73
2024/02/02 10:27:05;;;;;;;170.82;160.82;;;11.10;99.90;;;;;;4977666;28;20038;-73
2024/02/02 10:29:45;;;;;;;161.40;152.43;;;11.00;99.90;;;;;;4973949;28;21101;-74
2024/02/02 10:32:19;;;;;;;217.50;205.63;;;11.10;99.90;;;;;;4987428;28;20038;-73
2024/02/02 10:34:48;;;;;;;1999.90;999.90;;;11.20;99.90;;;;;;4971939;28;20210;-74
2024/02/02 10:37:35;;;;;;;181.43;171.20;;;11.20;99.90;;;;;;4988291;28;20240;-73
2024/02/02 10:40:16;;;;;;;236.63;223.50;;;11.30;99.90;;;;;;5029105;28;20044;-74
2024/02/02 10:42:42;;;;;;;;;;;11.30;99.90;;;;;;5031339;28;20598;-74
2024/02/02 10:45:33;;;;;;;298.05;282.00;;;11.50;99.90;;;;;;5017597;28;19912;-74
2024/02/02 10:48:14;;;;;;;259.55;245.30;;;11.60;99.90;;;;;;5053547;28;20403;-73
2024/02/02 10:50:46;;;;;;;368.90;346.70;;;11.70;99.90;;;;;;5032442;28;20466;-74
2024/02/02 10:53:50;;;;;;;1999.90;999.90;;;11.70;99.90;;;;;;5031355;28;20033;-73
2024/02/02 10:56:29;;;;;;;1999.90;999.90;;;11.80;99.90;;;;;;5026072;28;20048;-74
2024/02/02 10:59:03;;;;;;;1999.90;999.90;;;11.80;99.90;;;;;;5028560;28;20053;-74
2024/02/02 11:01:50;;;;;;;1999.90;999.90;;;11.90;99.90;;;;;;5031969;28;20028;-74
2024/02/02 11:04:29;;;;;;;1999.90;999.90;;;11.90;99.90;;;;;;5031172;28;20036;-74
2024/02/02 11:07:03;;;;;;;1999.90;999.90;;;11.90;99.90;;;;;;5031596;28;20033;-74
2024/02/02 11:10:02;;;;;;;1999.90;999.90;;;11.80;99.90;;;;;;5032911;28;20386;-74
2024/02/02 11:12:53;;;;;;;1999.90;999.90;;;11.80;99.90;;;;;;5032563;28;20041;-74
2024/02/02 11:15:37;;;;;;;1999.90;999.90;;;11.90;99.90;;;;;;5028466;28;20049;-75
2024/02/02 11:18:31;;;;;;;1999.90;999.90;;;11.90;99.90;;;;;;5032625;28;20052;-74
2024/02/02 11:21:09;;;;;;;1999.90;999.90;;;11.90;99.90;;;;;;5032475;28;20034;-74
2024/02/02 11:23:35;;;;;;;1999.90;999.90;;;11.90;99.90;;;;;;5032543;28;20025;-74
2024/02/02 11:26:14;;;;;;;1999.90;999.90;;;11.80;99.90;;;;;;5031875;28;20052;-74
2024/02/02 11:29:09;;;;;;;1999.90;999.90;;;11.80;99.90;;;;;;5030822;28;20030;-74
2024/02/02 11:31:51;;;;;;;1999.90;999.90;;;11.70;99.90;;;;;;5006591;28;20494;-74
2024/02/02 11:34:39;;;;;;;1999.90;999.90;;;11.80;99.90;;;;;;5028989;28;20394;-75
2024/02/02 11:37:11;;;;;;;1999.90;999.90;;;11.90;99.90;;;;;;5027298;28;20041;-74
2024/02/02 11:39:59;;;;;;;1999.90;999.90;;;11.90;99.90;;;;;;5031856;28;20029;-73
2024/02/02 11:42:26;;;;;;;1999.90;999.90;;;11.90;99.90;;;;;;5031252;28;20054;-74
2024/02/02 11:44:57;;;;;;;1999.90;999.90;;;11.90;99.90;;;;;;5006072;28;20053;-73
2024/02/02 11:47:24;;;;;;;1999.90;999.90;;;11.90;99.90;;;;;;5028566;28;20048;-74
2024/02/02 11:50:05;;;;;;;1999.90;999.90;;;12.00;99.90;;;;;;5031073;28;20045;-74
2024/02/02 11:52:40;;;;;;;;;;;12.20;99.90;;;;;;5032200;28;20021;-74
2024/02/02 11:55:09;;;;;;;1999.90;999.90;;;12.30;99.90;;;;;;5023864;28;19910;-74
2024/02/02 11:57:39;;;;;;;1999.90;999.90;;;12.30;99.90;;;;;;5031602;28;20425;-74
2024/02/02 12:00:05;;;;;;;1999.90;999.90;;;12.30;99.90;;;;;;5049899;28;20029;-73
2024/02/02 12:02:43;;;;;;;1999.90;999.90;;;12.30;99.90;;;;;;5011314;28;20478;-73
2024/02/02 12:05:24;;;;;;;1999.90;999.90;;;12.40;99.90;;;;;;5030273;28;20056;-74
2024/02/02 12:07:55;;;;;;;1999.90;999.90;;;12.40;99.90;;;;;;5025590;28;20387;-74
2024/02/02 12:10:22;;;;;;;1999.90;999.90;;;12.50;99.90;;;;;;5014061;28;20383;-74
2024/02/02 12:12:52;;;;;;;1999.90;999.90;;;12.60;99.90;;;;;;5021490;28;20038;-74
2024/02/02 12:15:19;;;;;;;1999.90;999.90;;;12.70;99.90;;;;;;5052695;28;20033;-74
2024/02/02 12:17:45;;;;;;;1999.90;999.90;;;12.80;99.90;;;;;;5030288;28;20397;-73
2024/02/02 12:20:16;;;;;;;1999.90;999.90;;;12.70;99.90;;;;;;5013337;28;20405;-74
2024/02/02 12:22:43;;;;;;;1999.90;999.90;;;12.70;99.90;;;;;;5028971;28;20033;-73
2024/02/02 12:25:09;;;;;;;1999.90;999.90;;;12.70;99.90;;;;;;5030271;28;20025;-74